sensor_id;sensor_type;location;lat;lon;timestamp;P1;durP1;ratioP1;P2;durP2;ratioP2
71677;SDS011;59511;52.136;6.206;2023-11-21T00:00:21;24.08;;;13.50;;
71677;SDS011;59511;52.136;6.206;2023-11-21T00:02:46;25.07;;;12.47;;
71677;SDS011;59511;52.136;6.206;2023-11-21T00:05:13;25.10;;;13.43;;
71677;SDS011;59511;52.136;6.206;2023-11-21T00:07:39;25.42;;;12.98;;
71677;SDS011;59511;52.136;6.206;2023-11-21T00:10:08;24.77;;;12.48;;
71677;SDS011;59511;52.136;6.206;2023-11-21T00:12:35;25.73;;;13.00;;
71677;SDS011;59511;52.136;6.206;2023-11-21T00:15:01;25.27;;;13.43;;
71677;SDS011;59511;52.136;6.206;2023-11-21T00:17:27;26.10;;;12.90;;
71677;SDS011;59511;52.136;6.206;2023-11-21T00:19:52;26.10;;;12.93;;
71677;SDS011;59511;52.136;6.206;2023-11-21T00:22:18;24.50;;;12.77;;
71677;SDS011;59511;52.136;6.206;2023-11-21T00:24:44;24.75;;;13.00;;
71677;SDS011;59511;52.136;6.206;2023-11-21T00:27:10;23.38;;;12.65;;
71677;SDS011;59511;52.136;6.206;2023-11-21T00:29:35;25.83;;;13.17;;
71677;SDS011;59511;52.136;6.206;2023-11-21T00:32:00;25.90;;;13.20;;
71677;SDS011;59511;52.136;6.206;2023-11-21T00:34:26;27.03;;;13.13;;
71677;SDS011;59511;52.136;6.206;2023-11-21T00:36:52;23.27;;;12.47;;
71677;SDS011;59511;52.136;6.206;2023-11-21T00:39:17;26.23;;;12.87;;
71677;SDS011;59511;52.136;6.206;2023-11-21T00:41:42;25.73;;;13.10;;
71677;SDS011;59511;52.136;6.206;2023-11-21T00:44:09;24.17;;;12.05;;
71677;SDS011;59511;52.136;6.206;2023-11-21T00:46:35;26.70;;;13.33;;
71677;SDS011;59511;52.136;6.206;2023-11-21T00:49:00;25.20;;;12.13;;
71677;SDS011;59511;52.136;6.206;2023-11-21T00:51:26;24.23;;;12.70;;
71677;SDS011;59511;52.136;6.206;2023-11-21T00:53:51;25.63;;;13.00;;
71677;SDS011;59511;52.136;6.206;2023-11-21T00:56:16;25.20;;;13.43;;
71677;SDS011;59511;52.136;6.206;2023-11-21T00:58:42;23.70;;;12.27;;
71677;SDS011;59511;52.136;6.206;2023-11-21T01:01:09;24.80;;;12.57;;
71677;SDS011;59511;52.136;6.206;2023-11-21T01:03:34;22.93;;;12.30;;
71677;SDS011;59511;52.136;6.206;2023-11-21T01:05:59;23.40;;;12.90;;
71677;SDS011;59511;52.136;6.206;2023-11-21T01:08:25;25.20;;;13.47;;
71677;SDS011;59511;52.136;6.206;2023-11-21T01:10:50;25.52;;;12.85;;
71677;SDS011;59511;52.136;6.206;2023-11-21T01:13:16;24.43;;;12.57;;
71677;SDS011;59511;52.136;6.206;2023-11-21T01:15:41;25.67;;;13.10;;
71677;SDS011;59511;52.136;6.206;2023-11-21T01:18:07;25.97;;;13.90;;
71677;SDS011;59511;52.136;6.206;2023-11-21T01:20:33;24.15;;;12.43;;
71677;SDS011;59511;52.136;6.206;2023-11-21T01:22:59;26.45;;;12.88;;
71677;SDS011;59511;52.136;6.206;2023-11-21T01:25:24;27.57;;;13.40;;
71677;SDS011;59511;52.136;6.206;2023-11-21T01:27:50;25.48;;;13.02;;
71677;SDS011;59511;52.136;6.206;2023-11-21T01:30:16;26.17;;;13.07;;
71677;SDS011;59511;52.136;6.206;2023-11-21T01:32:41;25.30;;;12.67;;
71677;SDS011;59511;52.136;6.206;2023-11-21T01:35:07;27.10;;;13.80;;
71677;SDS011;59511;52.136;6.206;2023-11-21T01:37:34;25.85;;;12.52;;
71677;SDS011;59511;52.136;6.206;2023-11-21T01:40:00;26.50;;;14.33;;
71677;SDS011;59511;52.136;6.206;2023-11-21T01:42:26;27.70;;;13.27;;
71677;SDS011;59511;52.136;6.206;2023-11-21T01:44:52;26.83;;;13.30;;
71677;SDS011;59511;52.136;6.206;2023-11-21T01:47:19;24.65;;;12.43;;
71677;SDS011;59511;52.136;6.206;2023-11-21T01:49:44;31.40;;;13.53;;
71677;SDS011;59511;52.136;6.206;2023-11-21T01:52:11;26.25;;;12.98;;
71677;SDS011;59511;52.136;6.206;2023-11-21T01:54:37;25.40;;;13.18;;
71677;SDS011;59511;52.136;6.206;2023-11-21T01:57:03;28.73;;;13.43;;
71677;SDS011;59511;52.136;6.206;2023-11-21T01:59:35;27.40;;;14.40;;
71677;SDS011;59511;52.136;6.206;2023-11-21T02:02:04;26.02;;;13.55;;
71677;SDS011;59511;52.136;6.206;2023-11-21T02:04:34;27.42;;;13.32;;
71677;SDS011;59511;52.136;6.206;2023-11-21T02:07:01;24.40;;;13.20;;
71677;SDS011;59511;52.136;6.206;2023-11-21T02:09:30;23.00;;;12.27;;
71677;SDS011;59511;52.136;6.206;2023-11-21T02:11:58;24.33;;;13.20;;
71677;SDS011;59511;52.136;6.206;2023-11-21T02:14:26;26.75;;;13.07;;
71677;SDS011;59511;52.136;6.206;2023-11-21T02:16:53;26.45;;;13.10;;
71677;SDS011;59511;52.136;6.206;2023-11-21T02:19:19;27.60;;;13.15;;
71677;SDS011;59511;52.136;6.206;2023-11-21T02:21:49;26.90;;;13.77;;
71677;SDS011;59511;52.136;6.206;2023-11-21T02:24:17;25.97;;;13.17;;
71677;SDS011;59511;52.136;6.206;2023-11-21T02:26:49;24.75;;;12.50;;
71677;SDS011;59511;52.136;6.206;2023-11-21T02:29:18;27.48;;;14.02;;
71677;SDS011;59511;52.136;6.206;2023-11-21T02:31:47;26.70;;;13.60;;
71677;SDS011;59511;52.136;6.206;2023-11-21T02:34:16;27.15;;;13.25;;
71677;SDS011;59511;52.136;6.206;2023-11-21T02:36:42;27.13;;;13.87;;
71677;SDS011;59511;52.136;6.206;2023-11-21T02:39:09;26.02;;;13.43;;
71677;SDS011;59511;52.136;6.206;2023-11-21T02:41:35;26.88;;;13.30;;
71677;SDS011;59511;52.136;6.206;2023-11-21T02:44:02;27.08;;;12.57;;
71677;SDS011;59511;52.136;6.206;2023-11-21T02:46:28;26.27;;;13.43;;
71677;SDS011;59511;52.136;6.206;2023-11-21T02:48:53;26.17;;;13.13;;
71677;SDS011;59511;52.136;6.206;2023-11-21T02:51:19;24.95;;;13.57;;
71677;SDS011;59511;52.136;6.206;2023-11-21T02:53:45;26.00;;;13.10;;
71677;SDS011;59511;52.136;6.206;2023-11-21T02:56:11;25.10;;;13.30;;
71677;SDS011;59511;52.136;6.206;2023-11-21T02:58:37;26.92;;;13.38;;
71677;SDS011;59511;52.136;6.206;2023-11-21T03:01:02;24.90;;;13.10;;
71677;SDS011;59511;52.136;6.206;2023-11-21T03:03:30;28.00;;;13.27;;
71677;SDS011;59511;52.136;6.206;2023-11-21T03:05:55;26.80;;;13.67;;
71677;SDS011;59511;52.136;6.206;2023-11-21T03:08:21;25.93;;;13.60;;
71677;SDS011;59511;52.136;6.206;2023-11-21T03:10:46;27.53;;;13.20;;
71677;SDS011;59511;52.136;6.206;2023-11-21T03:13:12;25.20;;;13.13;;
71677;SDS011;59511;52.136;6.206;2023-11-21T03:15:37;24.47;;;12.67;;
71677;SDS011;59511;52.136;6.206;2023-11-21T03:18:03;26.40;;;13.90;;
71677;SDS011;59511;52.136;6.206;2023-11-21T03:20:29;26.27;;;13.50;;
71677;SDS011;59511;52.136;6.206;2023-11-21T03:22:55;26.83;;;13.17;;
71677;SDS011;59511;52.136;6.206;2023-11-21T03:25:20;23.80;;;12.63;;
71677;SDS011;59511;52.136;6.206;2023-11-21T03:27:47;23.30;;;12.55;;
71677;SDS011;59511;52.136;6.206;2023-11-21T03:30:13;26.23;;;13.30;;
71677;SDS011;59511;52.136;6.206;2023-11-21T03:32:38;26.92;;;13.35;;
71677;SDS011;59511;52.136;6.206;2023-11-21T03:35:04;25.83;;;13.30;;
71677;SDS011;59511;52.136;6.206;2023-11-21T03:37:30;24.65;;;12.55;;
71677;SDS011;59511;52.136;6.206;2023-11-21T03:39:56;27.23;;;13.87;;
71677;SDS011;59511;52.136;6.206;2023-11-21T03:42:22;25.30;;;13.13;;
71677;SDS011;59511;52.136;6.206;2023-11-21T03:44:47;24.50;;;12.93;;
71677;SDS011;59511;52.136;6.206;2023-11-21T03:47:12;22.85;;;12.18;;
71677;SDS011;59511;52.136;6.206;2023-11-21T03:49:38;25.63;;;13.43;;
71677;SDS011;59511;52.136;6.206;2023-11-21T03:52:04;23.70;;;12.70;;
71677;SDS011;59511;52.136;6.206;2023-11-21T03:54:29;25.50;;;12.73;;
71677;SDS011;59511;52.136;6.206;2023-11-21T03:56:55;24.80;;;12.07;;
71677;SDS011;59511;52.136;6.206;2023-11-21T03:59:20;26.20;;;12.98;;
71677;SDS011;59511;52.136;6.206;2023-11-21T04:01:49;22.52;;;11.93;;
71677;SDS011;59511;52.136;6.206;2023-11-21T04:04:14;24.67;;;12.53;;
71677;SDS011;59511;52.136;6.206;2023-11-21T04:06:40;25.03;;;12.97;;
71677;SDS011;59511;52.136;6.206;2023-11-21T04:09:06;23.75;;;12.32;;
71677;SDS011;59511;52.136;6.206;2023-11-21T04:11:31;26.80;;;12.97;;
71677;SDS011;59511;52.136;6.206;2023-11-21T04:13:57;22.60;;;12.23;;
71677;SDS011;59511;52.136;6.206;2023-11-21T04:16:22;23.40;;;12.60;;
71677;SDS011;59511;52.136;6.206;2023-11-21T04:18:47;23.35;;;12.48;;
71677;SDS011;59511;52.136;6.206;2023-11-21T04:21:13;26.53;;;13.83;;
71677;SDS011;59511;52.136;6.206;2023-11-21T04:23:38;26.10;;;12.40;;
71677;SDS011;59511;52.136;6.206;2023-11-21T04:26:05;22.98;;;13.20;;
71677;SDS011;59511;52.136;6.206;2023-11-21T04:28:30;24.40;;;13.13;;
71677;SDS011;59511;52.136;6.206;2023-11-21T04:30:56;26.23;;;12.83;;
71677;SDS011;59511;52.136;6.206;2023-11-21T04:33:21;24.83;;;12.83;;
71677;SDS011;59511;52.136;6.206;2023-11-21T04:35:47;25.95;;;12.93;;
71677;SDS011;59511;52.136;6.206;2023-11-21T04:38:13;25.77;;;12.75;;
71677;SDS011;59511;52.136;6.206;2023-11-21T04:40:38;24.13;;;12.13;;
71677;SDS011;59511;52.136;6.206;2023-11-21T04:43:04;26.57;;;12.77;;
71677;SDS011;59511;52.136;6.206;2023-11-21T04:45:29;25.17;;;13.17;;
71677;SDS011;59511;52.136;6.206;2023-11-21T04:47:55;24.80;;;12.93;;
71677;SDS011;59511;52.136;6.206;2023-11-21T04:50:21;23.60;;;12.27;;
71677;SDS011;59511;52.136;6.206;2023-11-21T04:52:46;27.10;;;12.88;;
71677;SDS011;59511;52.136;6.206;2023-11-21T04:55:12;22.27;;;12.77;;
71677;SDS011;59511;52.136;6.206;2023-11-21T04:57:37;23.20;;;12.60;;
71677;SDS011;59511;52.136;6.206;2023-11-21T05:00:03;24.92;;;12.95;;
71677;SDS011;59511;52.136;6.206;2023-11-21T05:02:31;23.23;;;12.18;;
71677;SDS011;59511;52.136;6.206;2023-11-21T05:05:03;25.83;;;12.50;;
71677;SDS011;59511;52.136;6.206;2023-11-21T05:07:30;24.23;;;11.93;;
71677;SDS011;59511;52.136;6.206;2023-11-21T05:09:58;25.75;;;12.23;;
71677;SDS011;59511;52.136;6.206;2023-11-21T05:12:23;25.63;;;12.70;;
71677;SDS011;59511;52.136;6.206;2023-11-21T05:14:49;22.92;;;12.70;;
71677;SDS011;59511;52.136;6.206;2023-11-21T05:17:15;24.23;;;12.50;;
71677;SDS011;59511;52.136;6.206;2023-11-21T05:19:40;24.33;;;12.48;;
71677;SDS011;59511;52.136;6.206;2023-11-21T05:22:06;25.30;;;12.77;;
71677;SDS011;59511;52.136;6.206;2023-11-21T05:24:31;24.50;;;12.40;;
71677;SDS011;59511;52.136;6.206;2023-11-21T05:26:57;25.20;;;13.23;;
71677;SDS011;59511;52.136;6.206;2023-11-21T05:29:22;25.90;;;13.35;;
71677;SDS011;59511;52.136;6.206;2023-11-21T05:31:48;24.77;;;12.57;;
71677;SDS011;59511;52.136;6.206;2023-11-21T05:34:13;24.30;;;12.67;;
71677;SDS011;59511;52.136;6.206;2023-11-21T05:36:39;27.65;;;13.35;;
71677;SDS011;59511;52.136;6.206;2023-11-21T05:39:05;25.37;;;13.40;;
71677;SDS011;59511;52.136;6.206;2023-11-21T05:41:30;25.10;;;13.20;;
71677;SDS011;59511;52.136;6.206;2023-11-21T05:43:55;21.53;;;12.30;;
71677;SDS011;59511;52.136;6.206;2023-11-21T05:46:20;26.43;;;12.87;;
71677;SDS011;59511;52.136;6.206;2023-11-21T05:48:46;25.67;;;12.93;;
71677;SDS011;59511;52.136;6.206;2023-11-21T05:51:12;26.30;;;13.10;;
71677;SDS011;59511;52.136;6.206;2023-11-21T05:53:38;25.63;;;13.00;;
71677;SDS011;59511;52.136;6.206;2023-11-21T05:56:04;22.53;;;12.13;;
71677;SDS011;59511;52.136;6.206;2023-11-21T05:58:29;26.73;;;13.37;;
71677;SDS011;59511;52.136;6.206;2023-11-21T06:00:55;25.35;;;13.48;;
71677;SDS011;59511;52.136;6.206;2023-11-21T06:03:20;26.80;;;14.27;;
71677;SDS011;59511;52.136;6.206;2023-11-21T06:05:45;25.67;;;13.60;;
71677;SDS011;59511;52.136;6.206;2023-11-21T06:08:11;25.30;;;13.60;;
71677;SDS011;59511;52.136;6.206;2023-11-21T06:10:36;26.20;;;13.07;;
71677;SDS011;59511;52.136;6.206;2023-11-21T06:13:01;25.63;;;13.43;;
71677;SDS011;59511;52.136;6.206;2023-11-21T06:15:28;26.17;;;14.07;;
71677;SDS011;59511;52.136;6.206;2023-11-21T06:17:54;27.10;;;14.33;;
71677;SDS011;59511;52.136;6.206;2023-11-21T06:20:20;25.50;;;13.73;;
71677;SDS011;59511;52.136;6.206;2023-11-21T06:22:47;27.50;;;14.70;;
71677;SDS011;59511;52.136;6.206;2023-11-21T06:25:14;25.83;;;13.77;;
71677;SDS011;59511;52.136;6.206;2023-11-21T06:27:40;26.48;;;14.15;;
71677;SDS011;59511;52.136;6.206;2023-11-21T06:30:07;27.63;;;15.45;;
71677;SDS011;59511;52.136;6.206;2023-11-21T06:32:34;28.10;;;14.10;;
71677;SDS011;59511;52.136;6.206;2023-11-21T06:35:03;28.13;;;14.63;;
71677;SDS011;59511;52.136;6.206;2023-11-21T06:37:30;26.45;;;13.60;;
71677;SDS011;59511;52.136;6.206;2023-11-21T06:39:57;24.50;;;12.98;;
71677;SDS011;59511;52.136;6.206;2023-11-21T06:42:23;26.80;;;14.27;;
71677;SDS011;59511;52.136;6.206;2023-11-21T06:44:49;26.33;;;14.15;;
71677;SDS011;59511;52.136;6.206;2023-11-21T06:47:19;25.87;;;14.30;;
71677;SDS011;59511;52.136;6.206;2023-11-21T06:49:51;26.00;;;13.77;;
71677;SDS011;59511;52.136;6.206;2023-11-21T06:52:17;27.23;;;14.57;;
71677;SDS011;59511;52.136;6.206;2023-11-21T06:54:43;31.42;;;14.52;;
71677;SDS011;59511;52.136;6.206;2023-11-21T06:57:09;26.73;;;14.43;;
71677;SDS011;59511;52.136;6.206;2023-11-21T06:59:34;27.97;;;14.20;;
71677;SDS011;59511;52.136;6.206;2023-11-21T07:01:59;26.90;;;13.55;;
71677;SDS011;59511;52.136;6.206;2023-11-21T07:04:25;26.10;;;13.63;;
71677;SDS011;59511;52.136;6.206;2023-11-21T07:06:53;26.98;;;14.57;;
71677;SDS011;59511;52.136;6.206;2023-11-21T07:09:19;25.87;;;13.33;;
71677;SDS011;59511;52.136;6.206;2023-11-21T07:11:47;27.58;;;14.82;;
71677;SDS011;59511;52.136;6.206;2023-11-21T07:14:15;25.92;;;14.38;;
71677;SDS011;59511;52.136;6.206;2023-11-21T07:16:42;26.83;;;14.02;;
71677;SDS011;59511;52.136;6.206;2023-11-21T07:19:07;27.57;;;14.60;;
71677;SDS011;59511;52.136;6.206;2023-11-21T07:21:33;26.23;;;14.02;;
71677;SDS011;59511;52.136;6.206;2023-11-21T07:24:00;25.13;;;13.60;;
71677;SDS011;59511;52.136;6.206;2023-11-21T07:26:26;25.30;;;13.63;;
71677;SDS011;59511;52.136;6.206;2023-11-21T07:28:52;27.25;;;14.02;;
71677;SDS011;59511;52.136;6.206;2023-11-21T07:31:17;26.70;;;13.70;;
71677;SDS011;59511;52.136;6.206;2023-11-21T07:33:44;26.08;;;13.80;;
71677;SDS011;59511;52.136;6.206;2023-11-21T07:36:12;25.75;;;14.25;;
71677;SDS011;59511;52.136;6.206;2023-11-21T07:38:37;24.60;;;13.93;;
71677;SDS011;59511;52.136;6.206;2023-11-21T07:41:03;23.43;;;12.83;;
71677;SDS011;59511;52.136;6.206;2023-11-21T07:43:28;25.67;;;13.70;;
71677;SDS011;59511;52.136;6.206;2023-11-21T07:45:59;26.35;;;14.32;;
71677;SDS011;59511;52.136;6.206;2023-11-21T07:48:25;23.63;;;13.60;;
71677;SDS011;59511;52.136;6.206;2023-11-21T07:50:51;25.55;;;13.40;;
71677;SDS011;59511;52.136;6.206;2023-11-21T07:53:16;23.93;;;13.33;;
71677;SDS011;59511;52.136;6.206;2023-11-21T07:55:41;24.33;;;13.20;;
71677;SDS011;59511;52.136;6.206;2023-11-21T07:58:07;25.00;;;13.40;;
71677;SDS011;59511;52.136;6.206;2023-11-21T08:00:32;23.60;;;13.07;;
71677;SDS011;59511;52.136;6.206;2023-11-21T08:02:58;25.20;;;14.23;;
71677;SDS011;59511;52.136;6.206;2023-11-21T08:05:23;25.60;;;14.03;;
71677;SDS011;59511;52.136;6.206;2023-11-21T08:07:49;23.65;;;13.60;;
71677;SDS011;59511;52.136;6.206;2023-11-21T08:10:15;25.77;;;13.80;;
71677;SDS011;59511;52.136;6.206;2023-11-21T08:12:42;23.88;;;12.85;;
71677;SDS011;59511;52.136;6.206;2023-11-21T08:15:08;22.87;;;13.13;;
71677;SDS011;59511;52.136;6.206;2023-11-21T08:17:34;23.20;;;13.23;;
71677;SDS011;59511;52.136;6.206;2023-11-21T08:20:00;22.50;;;13.25;;
71677;SDS011;59511;52.136;6.206;2023-11-21T08:22:25;22.33;;;12.83;;
71677;SDS011;59511;52.136;6.206;2023-11-21T08:24:51;22.93;;;13.13;;
71677;SDS011;59511;52.136;6.206;2023-11-21T08:27:16;24.87;;;13.47;;
71677;SDS011;59511;52.136;6.206;2023-11-21T08:29:42;23.40;;;13.17;;
71677;SDS011;59511;52.136;6.206;2023-11-21T08:32:08;22.88;;;12.82;;
71677;SDS011;59511;52.136;6.206;2023-11-21T08:34:33;22.97;;;12.93;;
71677;SDS011;59511;52.136;6.206;2023-11-21T08:36:58;23.90;;;13.40;;
71677;SDS011;59511;52.136;6.206;2023-11-21T08:39:24;21.93;;;12.73;;
71677;SDS011;59511;52.136;6.206;2023-11-21T08:41:50;22.95;;;12.95;;
71677;SDS011;59511;52.136;6.206;2023-11-21T08:44:16;23.77;;;13.85;;
71677;SDS011;59511;52.136;6.206;2023-11-21T08:46:43;25.53;;;13.87;;
71677;SDS011;59511;52.136;6.206;2023-11-21T08:49:11;23.70;;;13.55;;
71677;SDS011;59511;52.136;6.206;2023-11-21T08:51:37;22.38;;;12.90;;
71677;SDS011;59511;52.136;6.206;2023-11-21T08:54:03;23.57;;;12.90;;
71677;SDS011;59511;52.136;6.206;2023-11-21T08:56:29;23.25;;;12.93;;
71677;SDS011;59511;52.136;6.206;2023-11-21T08:58:55;24.80;;;13.50;;
71677;SDS011;59511;52.136;6.206;2023-11-21T09:01:20;23.23;;;13.00;;
71677;SDS011;59511;52.136;6.206;2023-11-21T09:03:46;22.02;;;12.32;;
71677;SDS011;59511;52.136;6.206;2023-11-21T09:06:12;24.60;;;13.30;;
71677;SDS011;59511;52.136;6.206;2023-11-21T09:08:39;22.77;;;12.65;;
71677;SDS011;59511;52.136;6.206;2023-11-21T09:11:04;21.83;;;12.03;;
71677;SDS011;59511;52.136;6.206;2023-11-21T09:13:30;22.73;;;12.60;;
71677;SDS011;59511;52.136;6.206;2023-11-21T09:15:56;22.20;;;13.07;;
71677;SDS011;59511;52.136;6.206;2023-11-21T09:18:21;22.97;;;12.57;;
71677;SDS011;59511;52.136;6.206;2023-11-21T09:20:46;23.40;;;12.70;;
71677;SDS011;59511;52.136;6.206;2023-11-21T09:23:12;22.53;;;12.13;;
71677;SDS011;59511;52.136;6.206;2023-11-21T09:25:37;22.07;;;12.43;;
71677;SDS011;59511;52.136;6.206;2023-11-21T09:28:03;20.77;;;11.98;;
71677;SDS011;59511;52.136;6.206;2023-11-21T09:30:33;21.53;;;12.17;;
71677;SDS011;59511;52.136;6.206;2023-11-21T09:33:00;21.58;;;11.98;;
71677;SDS011;59511;52.136;6.206;2023-11-21T09:35:26;20.08;;;11.63;;
71677;SDS011;59511;52.136;6.206;2023-11-21T09:37:53;19.98;;;12.20;;
71677;SDS011;59511;52.136;6.206;2023-11-21T09:40:20;23.93;;;13.70;;
71677;SDS011;59511;52.136;6.206;2023-11-21T09:42:57;19.95;;;12.65;;
71677;SDS011;59511;52.136;6.206;2023-11-21T09:47:53;20.60;;;12.23;;
71677;SDS011;59511;52.136;6.206;2023-11-21T09:50:20;21.63;;;12.27;;
71677;SDS011;59511;52.136;6.206;2023-11-21T09:55:43;20.30;;;12.00;;
71677;SDS011;59511;52.136;6.206;2023-11-21T09:58:10;20.13;;;11.70;;
71677;SDS011;59511;52.136;6.206;2023-11-21T10:00:42;21.48;;;11.93;;
71677;SDS011;59511;52.136;6.206;2023-11-21T10:03:08;21.15;;;11.75;;
71677;SDS011;59511;52.136;6.206;2023-11-21T10:05:35;22.37;;;12.47;;
71677;SDS011;59511;52.136;6.206;2023-11-21T10:08:01;20.40;;;11.98;;
71677;SDS011;59511;52.136;6.206;2023-11-21T10:10:27;21.00;;;12.43;;
71677;SDS011;59511;52.136;6.206;2023-11-21T10:12:55;21.73;;;12.15;;
71677;SDS011;59511;52.136;6.206;2023-11-21T10:15:22;20.13;;;11.93;;
71677;SDS011;59511;52.136;6.206;2023-11-21T10:17:50;20.53;;;11.57;;
71677;SDS011;59511;52.136;6.206;2023-11-21T10:20:18;20.70;;;11.98;;
71677;SDS011;59511;52.136;6.206;2023-11-21T10:22:44;21.20;;;12.40;;
71677;SDS011;59511;52.136;6.206;2023-11-21T10:25:11;24.23;;;12.32;;
71677;SDS011;59511;52.136;6.206;2023-11-21T10:27:39;20.73;;;11.93;;
71677;SDS011;59511;52.136;6.206;2023-11-21T10:30:06;21.08;;;11.10;;
71677;SDS011;59511;52.136;6.206;2023-11-21T10:32:33;21.73;;;12.60;;
71677;SDS011;59511;52.136;6.206;2023-11-21T10:34:59;20.53;;;11.70;;
71677;SDS011;59511;52.136;6.206;2023-11-21T10:37:34;21.35;;;12.30;;
71677;SDS011;59511;52.136;6.206;2023-11-21T10:40:05;21.63;;;11.90;;
71677;SDS011;59511;52.136;6.206;2023-11-21T10:42:32;20.63;;;11.82;;
71677;SDS011;59511;52.136;6.206;2023-11-21T10:44:58;21.00;;;11.67;;
71677;SDS011;59511;52.136;6.206;2023-11-21T10:47:23;19.57;;;11.00;;
71677;SDS011;59511;52.136;6.206;2023-11-21T10:49:49;20.80;;;11.60;;
71677;SDS011;59511;52.136;6.206;2023-11-21T10:52:14;19.63;;;10.77;;
71677;SDS011;59511;52.136;6.206;2023-11-21T10:54:43;20.98;;;10.98;;
71677;SDS011;59511;52.136;6.206;2023-11-21T10:57:08;19.50;;;10.70;;
71677;SDS011;59511;52.136;6.206;2023-11-21T10:59:35;19.92;;;11.30;;
71677;SDS011;59511;52.136;6.206;2023-11-21T11:02:02;19.17;;;11.30;;
71677;SDS011;59511;52.136;6.206;2023-11-21T11:04:39;22.98;;;12.23;;
71677;SDS011;59511;52.136;6.206;2023-11-21T11:07:06;20.92;;;11.23;;
71677;SDS011;59511;52.136;6.206;2023-11-21T11:09:34;19.52;;;10.93;;
71677;SDS011;59511;52.136;6.206;2023-11-21T11:12:03;17.50;;;10.67;;
71677;SDS011;59511;52.136;6.206;2023-11-21T11:14:29;19.40;;;11.00;;
71677;SDS011;59511;52.136;6.206;2023-11-21T11:16:55;20.97;;;11.13;;
71677;SDS011;59511;52.136;6.206;2023-11-21T11:19:20;20.15;;;11.35;;
71677;SDS011;59511;52.136;6.206;2023-11-21T11:21:53;19.60;;;11.00;;
71677;SDS011;59511;52.136;6.206;2023-11-21T11:38:49;20.88;;;11.27;;
71677;SDS011;59511;52.136;6.206;2023-11-21T11:41:19;20.58;;;11.48;;
71677;SDS011;59511;52.136;6.206;2023-11-21T11:43:52;21.83;;;11.47;;
71677;SDS011;59511;52.136;6.206;2023-11-21T11:46:18;20.60;;;11.18;;
71677;SDS011;59511;52.136;6.206;2023-11-21T11:48:46;21.17;;;11.93;;
71677;SDS011;59511;52.136;6.206;2023-11-21T11:51:13;22.42;;;12.25;;
71677;SDS011;59511;52.136;6.206;2023-11-21T11:53:42;21.60;;;11.70;;
71677;SDS011;59511;52.136;6.206;2023-11-21T11:58:53;20.77;;;11.27;;
71677;SDS011;59511;52.136;6.206;2023-11-21T12:01:20;21.52;;;10.90;;
71677;SDS011;59511;52.136;6.206;2023-11-21T12:06:45;22.95;;;11.95;;
71677;SDS011;59511;52.136;6.206;2023-11-21T12:09:23;22.30;;;11.63;;
71677;SDS011;59511;52.136;6.206;2023-11-21T12:11:49;22.92;;;12.15;;
71677;SDS011;59511;52.136;6.206;2023-11-21T12:14:15;21.95;;;11.65;;
71677;SDS011;59511;52.136;6.206;2023-11-21T12:16:42;23.88;;;12.57;;
71677;SDS011;59511;52.136;6.206;2023-11-21T12:19:11;22.58;;;11.88;;
71677;SDS011;59511;52.136;6.206;2023-11-21T12:21:37;23.20;;;12.23;;
71677;SDS011;59511;52.136;6.206;2023-11-21T12:24:02;22.65;;;11.75;;
71677;SDS011;59511;52.136;6.206;2023-11-21T12:26:28;22.97;;;12.03;;
71677;SDS011;59511;52.136;6.206;2023-11-21T12:28:53;25.00;;;12.17;;
71677;SDS011;59511;52.136;6.206;2023-11-21T12:31:22;23.33;;;12.45;;
71677;SDS011;59511;52.136;6.206;2023-11-21T12:33:48;24.85;;;12.45;;
71677;SDS011;59511;52.136;6.206;2023-11-21T12:36:13;23.27;;;12.60;;
71677;SDS011;59511;52.136;6.206;2023-11-21T12:38:39;25.27;;;12.43;;
71677;SDS011;59511;52.136;6.206;2023-11-21T12:41:05;25.97;;;13.23;;
71677;SDS011;59511;52.136;6.206;2023-11-21T12:43:34;23.75;;;12.07;;
71677;SDS011;59511;52.136;6.206;2023-11-21T12:48:55;23.05;;;11.93;;
71677;SDS011;59511;52.136;6.206;2023-11-21T12:51:22;23.70;;;12.30;;
71677;SDS011;59511;52.136;6.206;2023-11-21T12:53:48;25.00;;;11.77;;
71677;SDS011;59511;52.136;6.206;2023-11-21T12:56:14;24.00;;;12.60;;
71677;SDS011;59511;52.136;6.206;2023-11-21T12:58:44;23.83;;;11.67;;
71677;SDS011;59511;52.136;6.206;2023-11-21T13:01:13;23.00;;;12.30;;
71677;SDS011;59511;52.136;6.206;2023-11-21T13:03:43;23.23;;;12.00;;
71677;SDS011;59511;52.136;6.206;2023-11-21T13:06:12;23.95;;;12.82;;
71677;SDS011;59511;52.136;6.206;2023-11-21T13:08:37;22.70;;;11.43;;
71677;SDS011;59511;52.136;6.206;2023-11-21T13:11:05;24.02;;;11.48;;
71677;SDS011;59511;52.136;6.206;2023-11-21T13:13:31;23.63;;;12.77;;
71677;SDS011;59511;52.136;6.206;2023-11-21T13:15:59;24.85;;;12.45;;
71677;SDS011;59511;52.136;6.206;2023-11-21T13:18:33;24.92;;;11.80;;
71677;SDS011;59511;52.136;6.206;2023-11-21T13:21:00;25.25;;;11.93;;
71677;SDS011;59511;52.136;6.206;2023-11-21T13:23:34;23.53;;;11.83;;
71677;SDS011;59511;52.136;6.206;2023-11-21T13:26:03;22.70;;;11.68;;
71677;SDS011;59511;52.136;6.206;2023-11-21T13:28:32;23.67;;;12.15;;
71677;SDS011;59511;52.136;6.206;2023-11-21T13:30:58;22.52;;;11.30;;
71677;SDS011;59511;52.136;6.206;2023-11-21T13:33:28;22.92;;;11.80;;
71677;SDS011;59511;52.136;6.206;2023-11-21T13:35:53;27.00;;;11.67;;
71677;SDS011;59511;52.136;6.206;2023-11-21T13:38:21;24.05;;;11.32;;
71677;SDS011;59511;52.136;6.206;2023-11-21T13:40:51;24.40;;;11.27;;
71677;SDS011;59511;52.136;6.206;2023-11-21T13:43:19;21.13;;;10.67;;
71677;SDS011;59511;52.136;6.206;2023-11-21T13:45:47;22.50;;;10.80;;
71677;SDS011;59511;52.136;6.206;2023-11-21T13:48:24;23.15;;;10.50;;
71677;SDS011;59511;52.136;6.206;2023-11-21T13:50:56;23.27;;;10.82;;
71677;SDS011;59511;52.136;6.206;2023-11-21T13:53:26;22.13;;;10.85;;
71677;SDS011;59511;52.136;6.206;2023-11-21T13:55:51;23.33;;;10.90;;
71677;SDS011;59511;52.136;6.206;2023-11-21T13:58:22;22.50;;;10.85;;
71677;SDS011;59511;52.136;6.206;2023-11-21T14:00:57;22.07;;;10.70;;
71677;SDS011;59511;52.136;6.206;2023-11-21T14:03:23;22.10;;;10.25;;
71677;SDS011;59511;52.136;6.206;2023-11-21T14:05:57;21.37;;;10.50;;
71677;SDS011;59511;52.136;6.206;2023-11-21T14:08:23;22.83;;;10.60;;
71677;SDS011;59511;52.136;6.206;2023-11-21T14:10:53;23.83;;;10.90;;
71677;SDS011;59511;52.136;6.206;2023-11-21T14:13:22;19.75;;;9.75;;
71677;SDS011;59511;52.136;6.206;2023-11-21T14:15:49;20.50;;;9.80;;
71677;SDS011;59511;52.136;6.206;2023-11-21T14:18:17;21.03;;;10.17;;
71677;SDS011;59511;52.136;6.206;2023-11-21T14:20:51;21.02;;;9.65;;
71677;SDS011;59511;52.136;6.206;2023-11-21T14:23:16;23.75;;;10.98;;
71677;SDS011;59511;52.136;6.206;2023-11-21T14:25:43;20.67;;;10.27;;
71677;SDS011;59511;52.136;6.206;2023-11-21T14:28:08;24.08;;;10.60;;
71677;SDS011;59511;52.136;6.206;2023-11-21T14:30:36;19.73;;;9.73;;
71677;SDS011;59511;52.136;6.206;2023-11-21T14:33:03;21.52;;;9.98;;
71677;SDS011;59511;52.136;6.206;2023-11-21T14:35:29;21.73;;;10.43;;
71677;SDS011;59511;52.136;6.206;2023-11-21T14:37:58;20.50;;;9.80;;
71677;SDS011;59511;52.136;6.206;2023-11-21T14:40:25;20.77;;;10.02;;
71677;SDS011;59511;52.136;6.206;2023-11-21T14:42:52;20.60;;;10.07;;
71677;SDS011;59511;52.136;6.206;2023-11-21T14:45:19;22.98;;;10.57;;